Indianapolis, IN (46225)

11:07 PM EST on February 13, 2016 (GMT -0500)
Werner Ent. Indianapolis | | Change Station
CLOSE
Current Station
Personal Weather Station
Location: Indianapolis, IN
Elevation: 683 ft
Nearby Weather Stations
Active Advisory: Winter Weather Advisory

Elev 683 ft 39.73 °N, 86.17 °W | Updated 17 seconds ago

Mostly Cloudy
Mostly Cloudy
15.5 °F
Feels Like 15 °F
N
1.0
Wind Variable Wind from NNW
Gusts 3.0 mph

Today
High -- | Low -- °F
--% Chance of Precip.
Yesterday
High -- | Low -- °F
Precip. -- in
Pressure 30.51 in
Visibility 10.0 miles
Clouds Overcast 19000 ft
Windchill 15 °F
Dew Point 2 °F
Humidity 53%
Rainfall 0.00 in
Snow Depth Not available.
7:40 AM 6:18 PM
Waxing Crescent, 37% visible
METAR KIND 140354Z 32003KT 10SM OVC190 M10/M18 A3046 RMK AO2 SLP329 T11001178
Pressure 30.51 in
Visibility 10.0 miles
Clouds Overcast 19000 ft
Windchill 15 °F
Dew Point 2 °F
Humidity 53%
Rainfall 0.00 in
Snow Depth Not available.
7:40 AM 6:18 PM
Waxing Crescent, 37% visible
METAR KIND 140354Z 32003KT 10SM OVC190 M10/M18 A3046 RMK AO2 SLP329 T11001178

10-Day Weather Forecast

Almanac

Astronomy

Feb. 13, 2016 Rise Set
Actual Time
Civil Twilight
Nautical Twilight
Astronomical Twilight
Moon
Length of Visible Light
Length of Day
Tomorrow will be .
, % of the Moon is Illuminated

Today's Extremes

State Highs State Lows

Community

WunderPhotos

Upload Photos

1,892,743 photos uploaded!

WunderBlog® & News

Nearby

Air Quality

  Air Quality AQ Index Pollutant
Not available.

Snow Depth

Station Depth Elevation

Earthquake Activity

City Distance Mag. Time & Date
Minimum magnitude displayed is 2.5.

Coastal Water Temperatures

Place Temperature

Stations

Nearby Weather Stations

Station Location Temp. Windchill Dew Point Humidity Wind Precip. Elev Updated Type
                   

Watches & Warnings

Winter Weather Advisory
Issued: 9:51 PM EST Feb. 13, 2016 – National Weather Service

... Winter Weather Advisory remains in effect from 8 am Sunday to
midnight EST Sunday night...

* timing... snow developing by mid morning Sunday and continuing
the rest of the day and gradually diminishing Sunday night.

* Main impact... snow covered roads and poor travel conditions.
Snow accumulations of up to three inches are possible.

Precautionary/preparedness actions...

A Winter Weather Advisory for snow means that periods of snow
will cause primarily travel difficulties. Be prepared for snow
covered roads and limited visibilities... and use caution while
driving.